Time;durP1;ratioP1;P1;durP2;ratioP2;P2;SDS_P1;SDS_P2;PMS_P1;PMS_P2;Temp;Humidity;BMP_temperature;BMP_pressure;BME280_temperature;BME280_humidity;BME280_pressure;Samples;Min_cycle;Max_cycle;Signal;HPM_P1;HPM_P2
2021/04/10 00:01:39;;;;;;;8.60;3.00;;;11.20;99.90;;;;;;5072902;28;20017;-74
2021/04/10 00:04:06;;;;;;;9.60;3.10;;;11.10;99.90;;;;;;5071998;28;20028;-74
2021/04/10 00:06:32;;;;;;;14.32;3.28;;;11.10;99.90;;;;;;5072493;28;20025;-73
2021/04/10 00:08:59;;;;;;;7.30;2.80;;;11.00;99.90;;;;;;5054555;28;20024;-74
2021/04/10 00:11:25;;;;;;;6.93;2.95;;;10.90;99.90;;;;;;5072276;28;20031;-74
2021/04/10 00:13:51;;;;;;;11.00;3.35;;;10.90;99.90;;;;;;5053340;28;20020;-74
2021/04/10 00:16:17;;;;;;;9.18;3.20;;;10.90;99.90;;;;;;5054124;28;20025;-74
2021/04/10 00:18:43;;;;;;;7.45;2.95;;;10.90;99.90;;;;;;5072424;28;20365;-74
2021/04/10 00:21:08;;;;;;;14.38;3.75;;;10.90;99.90;;;;;;5054456;28;20071;-74
2021/04/10 00:23:34;;;;;;;11.38;3.80;;;10.90;99.90;;;;;;5072609;28;20448;-74
2021/04/10 00:26:00;;;;;;;9.27;3.58;;;11.00;99.90;;;;;;5071752;28;20107;-74
2021/04/10 00:28:26;;;;;;;10.73;3.10;;;11.00;99.90;;;;;;5072323;28;20048;-74
2021/04/10 00:30:51;;;;;;;6.45;2.80;;;11.00;99.90;;;;;;5071932;28;20044;-73
2021/04/10 00:33:17;;;;;;;14.35;3.97;;;11.00;99.90;;;;;;5072044;28;20041;-74
2021/04/10 00:35:43;;;;;;;15.48;3.08;;;11.00;99.90;;;;;;5071581;28;20032;-73
2021/04/10 00:38:08;;;;;;;10.70;2.97;;;11.00;99.90;;;;;;5072153;28;20012;-74
2021/04/10 00:40:34;;;;;;;15.02;3.15;;;11.00;99.90;;;;;;5072138;28;20107;-74
2021/04/10 00:43:00;;;;;;;11.55;2.92;;;10.90;99.90;;;;;;5071856;28;20135;-74
2021/04/10 00:45:26;;;;;;;7.65;2.83;;;10.90;99.90;;;;;;5071574;28;20037;-74
2021/04/10 00:47:51;;;;;;;8.32;3.08;;;10.90;99.90;;;;;;5071154;28;20095;-73
2021/04/10 00:50:17;;;;;;;12.90;3.70;;;10.90;99.90;;;;;;5053469;28;20027;-73
2021/04/10 00:52:44;;;;;;;10.65;2.90;;;10.90;99.90;;;;;;5054150;28;20024;-73
2021/04/10 00:55:12;;;;;;;10.57;3.00;;;10.90;99.90;;;;;;5071682;28;20016;-74
2021/04/10 00:57:38;;;;;;;10.18;3.30;;;10.90;99.90;;;;;;5072063;28;20031;-75
2021/04/10 01:00:05;;;;;;;10.77;3.03;;;10.90;99.90;;;;;;5071427;28;20020;-73
2021/04/10 01:02:31;;;;;;;8.02;3.10;;;10.90;99.90;;;;;;5071376;28;20031;-74
2021/04/10 01:04:57;;;;;;;12.13;3.35;;;11.00;99.90;;;;;;5069880;28;20477;-74
2021/04/10 01:07:23;;;;;;;5.95;2.50;;;11.00;99.90;;;;;;5054141;28;20046;-74
2021/04/10 01:09:49;;;;;;;10.60;2.80;;;11.00;99.90;;;;;;5072217;28;20111;-73
2021/04/10 01:12:36;;;;;;;7.95;2.90;;;11.10;99.90;;;;;;5071747;28;20109;-74
2021/04/10 01:15:17;;;;;;;8.88;2.92;;;11.00;99.90;;;;;;5071949;28;20473;-74
2021/04/10 01:17:50;;;;;;;14.30;3.85;;;11.10;99.90;;;;;;5059914;28;20025;-74
2021/04/10 01:20:36;;;;;;;7.53;3.90;;;11.00;99.90;;;;;;5047086;28;20040;-73
2021/04/10 01:23:21;;;;;;;14.07;3.60;;;11.00;99.90;;;;;;5040457;28;20531;-73
2021/04/10 01:25:53;;;;;;;8.30;3.25;;;11.00;99.90;;;;;;5051237;28;20477;-74
2021/04/10 01:28:40;;;;;;;11.57;2.80;;;10.90;99.90;;;;;;5051456;28;20390;-73
2021/04/10 01:31:10;;;;;;;8.20;3.00;;;11.00;99.90;;;;;;5051118;28;20384;-74
2021/04/10 01:33:40;;;;;;;15.15;4.03;;;10.90;99.90;;;;;;5051869;28;20025;-73
2021/04/10 01:36:09;;;;;;;6.72;3.85;;;10.90;99.90;;;;;;5051539;28;20024;-73
2021/04/10 01:38:37;;;;;;;15.52;4.18;;;10.90;99.90;;;;;;5033500;28;20330;-73
2021/04/10 01:41:05;;;;;;;9.63;3.30;;;11.00;99.90;;;;;;5033328;28;20029;-74
2021/04/10 01:43:33;;;;;;;9.75;3.47;;;11.00;99.90;;;;;;5051297;28;20046;-74
2021/04/10 01:46:02;;;;;;;10.85;3.42;;;10.90;99.90;;;;;;5051481;28;20025;-73
2021/04/10 01:48:29;;;;;;;9.93;3.35;;;10.90;99.90;;;;;;5051913;28;20086;-74
2021/04/10 01:50:57;;;;;;;12.77;3.58;;;10.80;99.90;;;;;;5052680;28;20385;-73
2021/04/10 01:53:23;;;;;;;10.32;3.78;;;10.80;99.90;;;;;;5055728;28;20049;-73
2021/04/10 01:55:51;;;;;;;15.32;4.00;;;10.80;99.90;;;;;;5055559;28;20040;-74
2021/04/10 01:58:18;;;;;;;9.13;3.42;;;10.70;99.90;;;;;;5055377;28;20048;-73
2021/04/10 02:00:46;;;;;;;15.32;3.17;;;10.70;99.90;;;;;;5055340;28;20033;-73
2021/04/10 02:03:13;;;;;;;13.65;4.68;;;10.60;99.90;;;;;;5054813;28;20016;-74
2021/04/10 02:05:40;;;;;;;11.85;3.38;;;10.60;99.90;;;;;;5055055;28;20036;-73
2021/04/10 02:08:09;;;;;;;16.00;3.40;;;10.50;99.90;;;;;;5054811;28;20024;-73
2021/04/10 02:10:36;;;;;;;12.90;3.70;;;10.50;99.90;;;;;;5055023;28;20028;-73
2021/04/10 02:13:02;;;;;;;10.27;3.88;;;10.40;99.90;;;;;;5055253;28;20017;-74
2021/04/10 02:15:28;;;;;;;9.88;2.90;;;10.40;99.90;;;;;;5055184;28;20052;-73
2021/04/10 02:17:56;;;;;;;12.77;3.72;;;10.40;99.90;;;;;;5055422;28;20057;-73
2021/04/10 02:20:22;;;;;;;6.97;2.80;;;10.40;99.90;;;;;;5062042;28;20033;-74
2021/04/10 02:22:51;;;;;;;11.82;3.65;;;10.40;99.90;;;;;;5074702;28;20103;-74
2021/04/10 02:25:19;;;;;;;7.75;2.95;;;10.40;99.90;;;;;;5074043;28;20075;-74
2021/04/10 02:27:44;;;;;;;10.57;3.25;;;10.40;99.90;;;;;;5057261;28;20079;-74
2021/04/10 02:30:11;;;;;;;14.68;3.63;;;10.40;99.90;;;;;;5074522;28;20696;-73
2021/04/10 02:32:56;;;;;;;13.50;3.40;;;10.40;99.90;;;;;;5075454;28;20025;-74
2021/04/10 02:35:32;;;;;;;19.27;3.10;;;10.50;99.90;;;;;;5074628;28;20074;-73
2021/04/10 02:37:59;;;;;;;10.80;3.50;;;10.60;99.90;;;;;;5074893;28;20024;-73
2021/04/10 02:40:31;;;;;;;13.48;3.20;;;10.70;99.90;;;;;;5074555;28;20055;-74
2021/04/10 02:42:57;;;;;;;;;;;10.70;99.90;;;;;;5075256;28;20474;-73
2021/04/10 02:45:25;;;;;;;13.98;2.70;;;10.70;99.90;;;;;;5074630;28;19912;-73
2021/04/10 02:47:58;;;;;;;15.02;2.90;;;10.80;99.90;;;;;;5056958;28;20028;-74
2021/04/10 02:50:26;;;;;;;18.77;3.30;;;10.80;99.90;;;;;;5073545;28;20111;-73
2021/04/10 02:52:55;;;;;;;16.67;4.18;;;10.80;99.90;;;;;;5074287;28;20016;-74
2021/04/10 02:55:32;;;;;;;10.68;3.28;;;10.80;99.90;;;;;;5074416;28;20028;-74
2021/04/10 02:58:03;;;;;;;16.75;3.72;;;10.80;99.90;;;;;;5073494;28;20013;-73
2021/04/10 03:00:29;;;;;;;11.77;3.40;;;10.80;99.90;;;;;;5074060;28;20056;-74
2021/04/10 03:02:57;;;;;;;7.60;2.75;;;10.70;99.90;;;;;;5072552;28;20110;-73
2021/04/10 03:05:23;;;;;;;14.73;3.40;;;10.70;99.90;;;;;;5074115;28;20370;-74
2021/04/10 03:07:52;;;;;;;8.98;3.40;;;10.70;99.90;;;;;;5073908;28;20028;-74
2021/04/10 03:10:18;;;;;;;15.90;3.75;;;10.70;99.90;;;;;;5073756;28;20103;-74
2021/04/10 03:12:45;;;;;;;14.90;3.78;;;10.60;99.90;;;;;;5074185;28;20016;-74
2021/04/10 03:15:16;;;;;;;14.45;3.70;;;10.60;99.90;;;;;;5073892;28;20362;-73
2021/04/10 03:17:42;;;;;;;11.85;3.80;;;10.60;99.90;;;;;;5073362;28;20081;-72
2021/04/10 03:20:13;;;;;;;15.38;3.30;;;10.60;99.90;;;;;;5073371;28;20112;-74
2021/04/10 03:22:46;;;;;;;12.93;4.03;;;10.70;99.90;;;;;;5074296;28;20020;-74
2021/04/10 03:25:13;;;;;;;4.90;2.63;;;10.60;99.90;;;;;;5073643;28;20029;-73
2021/04/10 03:27:40;;;;;;;12.43;3.60;;;10.70;99.90;;;;;;5073297;28;20021;-74
2021/04/10 03:30:08;;;;;;;12.55;3.90;;;10.70;99.90;;;;;;5072879;28;20028;-74
2021/04/10 03:32:35;;;;;;;14.80;3.50;;;10.70;99.90;;;;;;5073299;28;20040;-74
2021/04/10 03:35:02;;;;;;;4.15;2.60;;;10.70;99.90;;;;;;5072760;28;20028;-73
2021/04/10 03:37:29;;;;;;;8.85;3.42;;;10.70;99.90;;;;;;5073031;28;20116;-73
2021/04/10 03:39:56;;;;;;;15.75;3.80;;;10.70;99.90;;;;;;5073280;28;20021;-74
2021/04/10 03:42:34;;;;;;;18.42;4.35;;;10.70;99.90;;;;;;5072957;28;20018;-74
2021/04/10 03:45:00;;;;;;;12.52;3.55;;;10.70;99.90;;;;;;5072804;28;20439;-74
2021/04/10 03:47:26;;;;;;;14.07;4.68;;;10.60;99.90;;;;;;5070323;28;20078;-72
2021/04/10 03:49:51;;;;;;;10.25;3.22;;;10.60;99.90;;;;;;5066246;28;20020;-74
2021/04/10 03:52:17;;;;;;;16.98;3.70;;;10.50;99.90;;;;;;5053459;28;20017;-74
2021/04/10 03:54:43;;;;;;;14.52;3.90;;;10.50;99.90;;;;;;5072350;28;20039;-74
2021/04/10 03:57:08;;;;;;;21.77;3.95;;;10.50;99.90;;;;;;5072463;28;20111;-74
2021/04/10 03:59:34;;;;;;;15.25;3.58;;;10.40;99.90;;;;;;5072655;28;20020;-73
2021/04/10 04:02:00;;;;;;;8.43;3.30;;;10.50;99.90;;;;;;5072499;28;20031;-73
2021/04/10 04:04:26;;;;;;;12.68;3.88;;;10.40;99.90;;;;;;5072557;28;20120;-74
2021/04/10 04:06:51;;;;;;;16.92;3.92;;;10.40;99.90;;;;;;5072426;28;20566;-74
2021/04/10 04:09:17;;;;;;;22.80;3.97;;;10.40;99.90;;;;;;5072136;28;20106;-74
2021/04/10 04:11:43;;;;;;;10.35;2.90;;;10.50;99.90;;;;;;5072708;28;20358;-74
2021/04/10 04:14:08;;;;;;;13.45;3.35;;;10.30;99.90;;;;;;5054637;28;20033;-74
2021/04/10 04:16:34;;;;;;;14.10;3.35;;;10.40;99.90;;;;;;5072900;28;20370;-74
2021/04/10 04:19:00;;;;;;;16.27;3.58;;;10.40;99.90;;;;;;5072909;28;20020;-74
2021/04/10 04:21:25;;;;;;;9.13;3.42;;;10.50;99.90;;;;;;5071904;28;20079;-74
2021/04/10 04:23:51;;;;;;;22.38;3.70;;;10.40;99.90;;;;;;5071878;28;20028;-74
2021/04/10 04:26:17;;;;;;;18.27;3.53;;;10.50;99.90;;;;;;5072069;28;20036;-73
2021/04/10 04:28:42;;;;;;;23.83;3.63;;;10.40;99.90;;;;;;5072689;28;20028;-73
2021/04/10 04:31:08;;;;;;;11.98;3.50;;;10.50;99.90;;;;;;5071144;28;20027;-74
2021/04/10 04:33:34;;;;;;;17.25;3.20;;;10.50;99.90;;;;;;5072183;28;20358;-74
2021/04/10 04:36:00;;;;;;;18.88;4.63;;;10.60;99.90;;;;;;5064878;28;20468;-74
2021/04/10 04:38:25;;;;;;;20.73;4.15;;;10.60;99.90;;;;;;5072467;28;20099;-74
2021/04/10 04:40:51;;;;;;;15.30;4.78;;;10.60;99.90;;;;;;5071332;28;21963;-74
2021/04/10 04:43:17;;;;;;;17.88;3.35;;;10.60;99.90;;;;;;5051760;28;20036;-74
2021/04/10 04:45:42;;;;;;;7.93;2.95;;;10.60;99.90;;;;;;5053896;28;20504;-74
2021/04/10 04:48:08;;;;;;;15.40;3.78;;;10.60;99.90;;;;;;5071543;28;20101;-74
2021/04/10 04:50:34;;;;;;;14.55;3.78;;;10.70;99.90;;;;;;5071685;28;20024;-74
2021/04/10 04:52:59;;;;;;;11.90;3.25;;;10.70;99.90;;;;;;5072184;28;20020;-74
2021/04/10 04:55:25;;;;;;;18.17;4.07;;;10.70;99.90;;;;;;5071873;28;20461;-74
2021/04/10 04:57:51;;;;;;;22.10;3.42;;;10.70;99.90;;;;;;5053772;28;20021;-74
2021/04/10 05:00:17;;;;;;;11.13;3.20;;;10.70;99.90;;;;;;5072175;28;20035;-73
2021/04/10 05:02:43;;;;;;;10.32;3.67;;;10.80;99.90;;;;;;5072023;28;20032;-73
2021/04/10 05:05:10;;;;;;;19.55;3.35;;;10.80;99.90;;;;;;5054093;28;20071;-74
2021/04/10 05:07:35;;;;;;;28.08;6.22;;;10.80;99.90;;;;;;5071259;28;20553;-74
2021/04/10 05:10:01;;;;;;;17.08;3.45;;;10.80;99.90;;;;;;5071558;28;20025;-74
2021/04/10 05:12:27;;;;;;;13.75;3.00;;;10.80;99.90;;;;;;5071744;28;20020;-74
2021/04/10 05:14:53;;;;;;;35.15;3.65;;;10.80;99.90;;;;;;5072226;28;20032;-73
2021/04/10 05:17:19;;;;;;;16.10;3.50;;;10.90;99.90;;;;;;5071755;28;20017;-74
2021/04/10 05:19:45;;;;;;;14.07;3.25;;;11.00;99.90;;;;;;5071403;28;20082;-74
2021/04/10 05:22:11;;;;;;;8.07;3.15;;;11.00;99.90;;;;;;5071715;28;20114;-74
2021/04/10 05:24:36;;;;;;;29.40;4.03;;;11.10;99.90;;;;;;5071804;28;20040;-74
2021/04/10 05:27:02;;;;;;;20.58;6.30;;;11.10;99.90;;;;;;5074633;28;20039;-74
2021/04/10 05:29:28;;;;;;;12.73;3.40;;;11.20;99.90;;;;;;5075711;28;20057;-73
2021/04/10 05:31:55;;;;;;;26.17;3.83;;;11.30;99.90;;;;;;5075781;28;20025;-73
2021/04/10 05:34:20;;;;;;;21.83;3.50;;;11.30;99.90;;;;;;5075984;28;20021;-73
2021/04/10 05:36:46;;;;;;;15.20;4.25;;;11.30;99.90;;;;;;5058255;28;20089;-74
2021/04/10 05:39:12;;;;;;;20.58;4.03;;;11.30;99.90;;;;;;5075275;28;20017;-73
2021/04/10 05:41:37;;;;;;;16.98;3.53;;;11.40;99.90;;;;;;5075939;28;20036;-73
2021/04/10 05:44:03;;;;;;;17.55;3.88;;;11.40;99.90;;;;;;5075756;28;20047;-74
2021/04/10 05:46:29;;;;;;;21.70;4.00;;;11.50;99.90;;;;;;5075787;28;20023;-73
2021/04/10 05:48:55;;;;;;;26.73;4.07;;;11.60;99.90;;;;;;5075724;28;20021;-73
2021/04/10 05:51:20;;;;;;;16.50;3.47;;;11.70;99.90;;;;;;5075627;28;20443;-73
2021/04/10 05:53:46;;;;;;;44.38;17.13;;;11.70;99.90;;;;;;5073728;28;20017;-73
2021/04/10 05:56:12;;;;;;;21.70;6.10;;;11.70;99.90;;;;;;5075424;28;20037;-74
2021/04/10 05:58:38;;;;;;;31.75;9.00;;;11.80;99.90;;;;;;5075084;28;20049;-74
2021/04/10 06:01:04;;;;;;;23.63;6.80;;;11.80;99.90;;;;;;5074959;28;20637;-74
2021/04/10 06:03:30;;;;;;;15.57;3.88;;;11.90;99.90;;;;;;5075466;28;20027;-74
2021/04/10 06:05:56;;;;;;;20.58;3.72;;;12.00;99.90;;;;;;5075382;28;20028;-74
2021/04/10 06:08:21;;;;;;;38.85;4.93;;;12.20;99.90;;;;;;5074769;28;20126;-73
2021/04/10 06:10:47;;;;;;;17.48;3.58;;;12.30;99.90;;;;;;5074748;28;20107;-73
2021/04/10 06:13:14;;;;;;;17.48;4.32;;;12.40;99.90;;;;;;5075522;28;20035;-73
2021/04/10 06:15:40;;;;;;;12.63;3.00;;;12.50;99.90;;;;;;5075355;28;20457;-73
2021/04/10 06:18:07;;;;;;;22.60;5.80;;;12.50;99.90;;;;;;5075270;28;20111;-74
2021/04/10 06:20:32;;;;;;;20.15;5.50;;;12.50;99.90;;;;;;5074826;28;20043;-73
2021/04/10 06:22:59;;;;;;;47.35;32.80;;;12.50;99.90;;;;;;5075050;28;20032;-74
2021/04/10 06:25:25;;;;;;;24.98;7.28;;;12.60;99.90;;;;;;5074698;28;20511;-74
2021/04/10 06:27:50;;;;;;;39.67;19.88;;;12.70;99.90;;;;;;5075145;28;20021;-74
2021/04/10 06:30:16;;;;;;;14.75;4.20;;;12.70;99.90;;;;;;5074633;28;20025;-74
2021/04/10 06:32:42;;;;;;;15.43;5.65;;;12.70;99.90;;;;;;5074843;28;20542;-74
2021/04/10 06:35:08;;;;;;;14.90;5.75;;;12.80;99.90;;;;;;5077098;28;20024;-74
2021/04/10 06:37:37;;;;;;;18.33;6.75;;;12.80;99.90;;;;;;5074229;28;20066;-73
2021/04/10 06:40:06;;;;;;;16.00;5.78;;;12.90;99.90;;;;;;5074966;28;20024;-74
2021/04/10 06:42:32;;;;;;;15.23;4.40;;;13.10;99.90;;;;;;5072486;28;20016;-74
2021/04/10 06:44:59;;;;;;;11.98;3.65;;;13.40;99.90;;;;;;5074576;28;20043;-74
2021/04/10 06:47:29;;;;;;;24.23;3.50;;;13.70;99.90;;;;;;5074555;28;20028;-73
2021/04/10 06:49:55;;;;;;;12.63;3.65;;;13.80;99.90;;;;;;5056528;28;20563;-74
2021/04/10 06:52:21;;;;;;;12.55;3.70;;;14.00;99.90;;;;;;5074508;28;20143;-74
2021/04/10 06:55:17;;;;;;;15.85;3.78;;;14.20;99.90;;;;;;5069597;28;20058;-74
2021/04/10 06:58:05;;;;;;;14.43;4.55;;;14.30;99.90;;;;;;5069642;28;21538;-74
2021/04/10 07:00:31;;;;;;;20.52;6.80;;;14.40;99.90;;;;;;5073532;28;20056;-73
2021/04/10 07:02:59;;;;;;;14.55;4.38;;;14.40;99.90;;;;;;5074157;28;20070;-73
2021/04/10 07:05:25;;;;;;;10.88;3.47;;;14.40;99.90;;;;;;5074298;28;20039;-74
2021/04/10 07:07:51;;;;;;;11.77;4.03;;;14.30;99.90;;;;;;5072986;28;20047;-73
2021/04/10 07:10:17;;;;;;;9.82;3.63;;;14.30;99.90;;;;;;5078613;28;20401;-73
2021/04/10 07:12:43;;;;;;;11.75;2.38;;;14.20;99.90;;;;;;5069273;28;20098;-73
2021/04/10 07:15:12;;;;;;;11.15;2.60;;;14.10;99.90;;;;;;5085624;28;20494;-72
2021/04/10 07:17:38;;;;;;;19.70;3.47;;;14.10;99.90;;;;;;5065655;28;20429;-73
2021/04/10 07:20:27;;;;;;;21.40;3.38;;;14.20;99.90;;;;;;5072836;28;20020;-73
2021/04/10 07:23:00;;;;;;;20.50;2.75;;;14.70;99.90;;;;;;5074141;28;20430;-73
2021/04/10 07:25:27;;;;;;;11.05;2.90;;;15.10;99.90;;;;;;5085135;28;20509;-74
2021/04/10 07:27:53;;;;;;;9.73;2.97;;;15.70;99.90;;;;;;5074457;28;20032;-72
2021/04/10 07:30:20;;;;;;;13.70;2.60;;;16.10;99.90;;;;;;5073212;28;20036;-73
2021/04/10 07:32:46;;;;;;;9.43;2.97;;;16.40;99.90;;;;;;5051321;28;20355;-73
2021/04/10 07:35:15;;;;;;;14.57;3.08;;;16.20;99.90;;;;;;5071575;28;20511;-74
2021/04/10 07:37:49;;;;;;;10.00;2.40;;;16.00;99.90;;;;;;5072053;28;20035;-74
2021/04/10 07:40:26;;;;;;;12.82;2.72;;;15.80;99.90;;;;;;5075191;28;20089;-73
2021/04/10 07:42:59;;;;;;;7.65;2.40;;;16.00;99.90;;;;;;5076985;28;20539;-74
2021/04/10 07:45:33;;;;;;;7.13;2.13;;;16.70;99.90;;;;;;5071693;28;20674;-73
2021/04/10 07:48:24;;;;;;;5.90;2.15;;;16.80;99.90;;;;;;5071429;28;20029;-74
2021/04/10 07:50:56;;;;;;;11.50;2.58;;;16.70;99.90;;;;;;5079398;28;20062;-73
2021/04/10 07:53:23;;;;;;;13.13;2.28;;;16.80;99.90;;;;;;5071289;28;20021;-74
2021/04/10 07:55:50;;;;;;;8.68;2.58;;;16.60;99.90;;;;;;5082100;28;20052;-74
2021/04/10 07:58:36;;;;;;;5.78;2.55;;;16.60;99.90;;;;;;5087629;28;20036;-73
2021/04/10 08:01:02;;;;;;;4.63;2.22;;;16.40;99.90;;;;;;5077240;28;20032;-73
2021/04/10 08:03:47;;;;;;;8.55;2.10;;;17.10;99.90;;;;;;5071198;28;20019;-74
2021/04/10 08:06:15;;;;;;;4.40;2.10;;;19.40;99.90;;;;;;5065562;28;20037;-74
2021/04/10 08:09:06;;;;;;;3.55;1.67;;;21.70;99.90;;;;;;5069539;28;20063;-73
2021/04/10 08:11:36;;;;;;;;;;;22.60;95.10;;;;;;5067837;28;20127;-75
2021/04/10 08:14:08;;;;;;;8.73;1.75;;;21.90;94.90;;;;;;5069806;28;19915;-75
2021/04/10 08:16:49;;;;;;;13.75;2.30;;;21.90;94.50;;;;;;5071092;28;20073;-75
2021/04/10 08:19:15;;;;;;;;;;;21.50;94.20;;;;;;5074370;28;20461;-75
2021/04/10 08:21:46;;;;;;;4.82;1.48;;;21.20;93.40;;;;;;5080466;28;19962;-75
2021/04/10 08:24:23;;;;;;;5.47;1.33;;;21.20;93.50;;;;;;5077528;28;20023;-74
2021/04/10 08:26:50;;;;;;;3.88;1.55;;;20.90;92.90;;;;;;5085287;28;20043;-74
2021/04/10 08:29:17;;;;;;;9.55;2.10;;;20.70;93.10;;;;;;5087656;28;20026;-75
2021/04/10 08:31:43;;;;;;;13.45;1.85;;;20.30;93.70;;;;;;5088605;28;20103;-74
2021/04/10 08:34:09;;;;;;;6.60;1.83;;;19.90;93.40;;;;;;5072270;28;20088;-74
2021/04/10 08:36:38;;;;;;;10.15;2.00;;;19.60;94.20;;;;;;5080825;28;20051;-74
2021/04/10 08:39:04;;;;;;;5.82;1.60;;;19.40;93.40;;;;;;5071819;28;20099;-75
2021/04/10 08:41:32;;;;;;;13.38;2.08;;;19.40;93.30;;;;;;5072371;28;20082;-76
2021/04/10 08:43:59;;;;;;;8.40;2.42;;;19.70;93.70;;;;;;5072050;28;20492;-76
2021/04/10 08:46:27;;;;;;;9.13;1.90;;;19.90;92.70;;;;;;5072081;28;20028;-76
2021/04/10 08:48:57;;;;;;;6.57;2.35;;;19.90;92.90;;;;;;5071054;28;20012;-76
2021/04/10 08:51:26;;;;;;;6.18;2.10;;;20.10;92.40;;;;;;5070692;28;20027;-75
2021/04/10 08:53:56;;;;;;;16.20;2.80;;;20.20;93.10;;;;;;5071504;28;20440;-75
2021/04/10 08:56:27;;;;;;;10.52;2.30;;;20.20;93.30;;;;;;5071194;28;20043;-78
2021/04/10 08:59:07;;;;;;;11.43;2.50;;;20.20;93.90;;;;;;5070576;28;20035;-76
2021/04/10 09:01:34;;;;;;;12.88;1.98;;;20.20;94.20;;;;;;5066378;28;20059;-73
2021/04/10 09:04:00;;;;;;;7.57;2.10;;;20.50;94.80;;;;;;5069626;28;20033;-73
2021/04/10 09:06:29;;;;;;;4.90;1.88;;;20.50;93.80;;;;;;5080727;28;20388;-73
2021/04/10 09:09:10;;;;;;;6.82;2.47;;;20.50;94.40;;;;;;5071797;28;20024;-72
2021/04/10 09:11:40;;;;;;;8.70;2.03;;;20.30;94.80;;;;;;5070515;28;20031;-72
2021/04/10 09:14:06;;;;;;;9.13;2.38;;;20.20;94.60;;;;;;5071317;28;20033;-72
2021/04/10 09:16:37;;;;;;;9.27;2.17;;;20.10;94.70;;;;;;5070390;28;20033;-73
2021/04/10 09:19:12;;;;;;;5.72;2.60;;;19.90;94.90;;;;;;5081028;28;20066;-73
2021/04/10 09:21:45;;;;;;;8.27;1.90;;;19.80;95.30;;;;;;5070779;28;20124;-74
2021/04/10 09:24:31;;;;;;;12.13;2.72;;;19.90;95.20;;;;;;5070513;28;20058;-89
2021/04/10 09:27:19;;;;;;;7.63;2.97;;;20.10;95.80;;;;;;5072199;28;20031;-82
2021/04/10 09:30:04;;;;;;;11.20;3.13;;;20.20;95.80;;;;;;5072291;28;20641;-77
2021/04/10 09:32:43;;;;;;;8.15;3.05;;;20.30;96.10;;;;;;5071399;28;20049;-77
2021/04/10 09:35:13;;;;;;;13.02;3.20;;;20.60;96.00;;;;;;5070797;28;20132;-78
2021/04/10 09:37:38;;;;;;;21.90;4.15;;;20.60;96.00;;;;;;5071201;28;20024;-77
2021/04/10 09:40:09;;;;;;;9.35;3.25;;;20.60;96.30;;;;;;5053640;28;20055;-77
2021/04/10 09:45:17;;;;;;;11.75;2.10;;;20.30;97.80;;;;;;5070758;28;20082;-77
2021/04/10 09:47:54;;;;;;;11.23;2.38;;;20.10;98.50;;;;;;5074437;28;20020;-76
2021/04/10 09:50:44;;;;;;;9.63;2.10;;;19.90;99.10;;;;;;5075031;28;20464;-76
2021/04/10 09:53:24;;;;;;;10.30;2.58;;;19.70;99.80;;;;;;5073579;28;20407;-77
2021/04/10 09:56:05;;;;;;;12.77;2.30;;;19.70;99.90;;;;;;5063670;28;20111;-79
2021/04/10 09:58:42;;;;;;;5.95;2.20;;;19.60;99.90;;;;;;5069872;28;20509;-79
2021/04/10 10:01:13;;;;;;;18.30;3.22;;;19.20;99.90;;;;;;5071037;28;20574;-78
2021/04/10 10:03:39;;;;;;;5.93;2.00;;;19.30;99.90;;;;;;5071375;28;20047;-78
2021/04/10 10:06:30;;;;;;;11.80;2.83;;;19.40;99.90;;;;;;5074530;28;20712;-78
2021/04/10 10:08:56;;;;;;;11.07;1.90;;;19.60;99.90;;;;;;5070865;28;20106;-78
2021/04/10 10:11:22;;;;;;;13.07;2.05;;;19.90;99.90;;;;;;5069929;28;20050;-78
2021/04/10 10:13:48;;;;;;;11.05;2.85;;;20.20;99.60;;;;;;5074792;28;20129;-77
2021/04/10 10:16:23;;;;;;;27.63;7.60;;;20.30;99.50;;;;;;5075236;28;20495;-74
2021/04/10 10:18:49;;;;;;;11.48;3.50;;;20.40;99.60;;;;;;5072470;28;20102;-75
2021/04/10 10:21:20;;;;;;;11.13;3.13;;;20.30;99.50;;;;;;5073579;28;20463;-75
2021/04/10 10:23:58;;;;;;;12.18;2.67;;;20.20;99.80;;;;;;5073852;28;20043;-75
2021/04/10 10:26:27;;;;;;;9.63;2.38;;;20.10;99.90;;;;;;5065381;28;20134;-75
2021/04/10 10:28:57;;;;;;;10.50;2.60;;;20.00;99.90;;;;;;5074824;28;20043;-74
2021/04/10 10:31:25;;;;;;;10.65;2.85;;;19.90;99.90;;;;;;5073881;28;20036;-74
2021/04/10 10:33:52;;;;;;;12.30;3.45;;;19.90;99.90;;;;;;5072556;28;20496;-74
2021/04/10 10:36:19;;;;;;;11.75;2.47;;;19.80;99.90;;;;;;5056442;28;20028;-74
2021/04/10 10:38:47;;;;;;;9.60;2.55;;;19.80;99.90;;;;;;5074053;28;20016;-74
2021/04/10 10:41:15;;;;;;;19.27;2.35;;;19.70;99.90;;;;;;5074527;28;20020;-73
2021/04/10 10:43:41;;;;;;;17.92;3.63;;;19.60;99.90;;;;;;5056952;28;20025;-75
2021/04/10 10:46:17;;;;;;;13.27;3.85;;;19.50;99.90;;;;;;5073420;28;20029;-73
2021/04/10 10:48:42;;;;;;;15.23;2.83;;;19.40;99.90;;;;;;5074676;28;20477;-74
2021/04/10 10:51:10;;;;;;;3.80;2.33;;;19.30;95.90;;;;;;5075083;28;20035;-74
2021/04/10 10:53:41;;;;;;;13.68;2.00;;;19.30;98.00;;;;;;5079975;28;20108;-73
2021/04/10 10:56:10;;;;;;;9.13;3.28;;;19.20;99.00;;;;;;5075835;28;20020;-73
2021/04/10 10:58:45;;;;;;;11.02;2.42;;;19.10;98.90;;;;;;5073775;28;20025;-73
2021/04/10 11:01:12;;;;;;;12.50;2.30;;;18.90;98.20;;;;;;5073353;28;20071;-73
2021/04/10 11:03:43;;;;;;;9.73;2.13;;;18.90;98.50;;;;;;5075878;28;20056;-73
2021/04/10 11:06:09;;;;;;;8.68;2.13;;;18.90;99.00;;;;;;5081077;28;20063;-72
2021/04/10 11:08:35;;;;;;;11.85;1.98;;;18.70;99.30;;;;;;5072417;28;20020;-76
2021/04/10 11:11:01;;;;;;;7.03;2.15;;;18.60;98.90;;;;;;5072718;28;20385;-72
2021/04/10 11:13:27;;;;;;;8.30;1.90;;;18.60;98.80;;;;;;5083661;28;20027;-74
2021/04/10 11:15:53;;;;;;;8.32;2.30;;;18.60;99.30;;;;;;5073129;28;20397;-73
2021/04/10 11:18:29;;;;;;;10.82;2.90;;;18.60;98.90;;;;;;5054741;28;20460;-73
2021/04/10 11:21:15;;;;;;;13.57;2.50;;;18.40;98.50;;;;;;5077475;28;20123;-75
2021/04/10 11:24:04;;;;;;;9.98;2.67;;;18.50;99.10;;;;;;5072767;28;20098;-72
2021/04/10 11:26:40;;;;;;;6.65;3.03;;;18.60;99.60;;;;;;5072330;28;20032;-75
2021/04/10 11:29:18;;;;;;;13.63;2.75;;;18.50;99.90;;;;;;5073040;28;20013;-73
2021/04/10 11:32:22;;;;;;;7.13;2.40;;;18.40;99.60;;;;;;5055194;28;20032;-73
2021/04/10 11:34:52;;;;;;;7.72;2.22;;;18.40;99.60;;;;;;5057349;28;20026;-74
2021/04/10 11:37:19;;;;;;;9.55;2.10;;;18.30;99.90;;;;;;5074177;28;20028;-75
2021/04/10 11:39:55;;;;;;;4.28;2.10;;;18.30;99.90;;;;;;5073305;28;20024;-74
2021/04/10 11:42:47;;;;;;;6.53;2.08;;;18.30;99.90;;;;;;5055069;28;20016;-75
2021/04/10 11:45:42;;;;;;;10.80;2.42;;;18.50;99.90;;;;;;5073108;28;20472;-74
2021/04/10 11:48:23;;;;;;;10.43;2.88;;;18.70;99.90;;;;;;5069664;28;20102;-73
2021/04/10 11:50:54;;;;;;;9.07;2.42;;;18.70;99.90;;;;;;5072865;28;20046;-74
2021/04/10 11:53:35;;;;;;;8.50;2.97;;;18.70;99.90;;;;;;5073037;28;20013;-74
2021/04/10 11:56:20;;;;;;;4.63;1.92;;;18.60;99.90;;;;;;5072690;28;20024;-74
2021/04/10 11:58:46;;;;;;;22.60;4.15;;;18.70;99.90;;;;;;5041365;28;20055;-73
2021/04/10 12:01:13;;;;;;;22.38;3.75;;;18.80;99.90;;;;;;5070579;28;20009;-74
2021/04/10 12:04:02;;;;;;;10.63;3.33;;;18.80;99.90;;;;;;5073010;28;20103;-74
2021/04/10 12:06:40;;;;;;;11.88;2.40;;;18.80;99.90;;;;;;5074048;28;20060;-73
2021/04/10 12:09:12;;;;;;;12.73;2.63;;;18.70;99.90;;;;;;5070099;28;20763;-73
2021/04/10 12:11:40;;;;;;;10.80;2.80;;;18.60;99.90;;;;;;5068693;28;20028;-73
2021/04/10 12:14:12;;;;;;;8.10;2.33;;;18.50;99.90;;;;;;5072226;28;20074;-74
2021/04/10 12:16:39;;;;;;;14.57;2.25;;;18.40;99.90;;;;;;5072099;28;20210;-74
2021/04/10 12:19:05;;;;;;;9.15;2.13;;;18.40;99.90;;;;;;5071104;28;20025;-73
2021/04/10 12:21:31;;;;;;;12.23;2.58;;;18.40;99.90;;;;;;5071235;28;20054;-74
2021/04/10 12:23:57;;;;;;;5.47;2.05;;;18.30;99.90;;;;;;5053742;28;20032;-73
2021/04/10 12:26:23;;;;;;;6.50;2.35;;;18.20;99.90;;;;;;5071996;28;20028;-73
2021/04/10 12:28:48;;;;;;;6.40;2.70;;;18.10;99.90;;;;;;5072042;28;20094;-73
2021/04/10 12:31:14;;;;;;;12.07;2.47;;;18.10;99.90;;;;;;5071814;28;20027;-73
2021/04/10 12:33:41;;;;;;;9.00;2.03;;;18.00;99.90;;;;;;5072473;28;20452;-73
2021/04/10 12:36:08;;;;;;;16.83;2.50;;;18.00;99.90;;;;;;5070156;28;20025;-73
2021/04/10 12:38:34;;;;;;;10.23;2.05;;;17.80;99.90;;;;;;5077091;28;20114;-73
2021/04/10 12:41:01;;;;;;;8.63;2.33;;;17.70;99.90;;;;;;5084921;28;20023;-73
2021/04/10 12:43:26;;;;;;;17.85;2.30;;;17.70;99.90;;;;;;5072141;28;20392;-72
2021/04/10 12:45:52;;;;;;;7.07;2.35;;;17.60;99.90;;;;;;5077129;28;20036;-74
2021/04/10 12:48:18;;;;;;;16.90;3.03;;;17.60;99.90;;;;;;5089017;28;20103;-74
2021/04/10 12:50:43;;;;;;;10.50;2.15;;;17.60;99.90;;;;;;5079408;28;20035;-73
2021/04/10 12:53:09;;;;;;;5.28;2.22;;;17.60;99.90;;;;;;5085015;28;20030;-74
2021/04/10 12:55:35;;;;;;;11.77;2.47;;;17.50;99.90;;;;;;5084121;28;20480;-73